LA HONDA (LAH)

Elevation: 425' · SAN GREGORIO CR basin · Operator: CAL FIRE

Query executed Saturday at 17:33:13   clock

Provisional data, subject to change.
Select a sensor type for a plot of data.

Earlier

Date   /   Time   RAIN     TEMP     REL HUM     FUEL MS     FUEL TP     WIND SP     WIND DR     PEAK WS     PEAK WD     SOLAR R     BAT VOL    
(PST)INCHES   DEG F   %   %   DEG F   MPH   DEG   MPH   DEG   W/M^2   VOLTS  
12/19/2014 17:00 19.22 53 97 26 52 3 76 12 83 5.00 13.2
12/19/2014 18:00 19.26 53 97 26 52 3 73 9 88 0.00 13.1
12/19/2014 19:00 19.30 53 98 26 53 4 82 7 85 0.00 13.0
12/19/2014 20:00 19.31 52 98 26 52 4 72 9 51 0.00 12.9
12/19/2014 21:00 19.32 53 97 26 52 3 92 7 90 0.00 12.9
12/19/2014 22:00 19.34 53 97 26 53 2 85 7 77 0.00 12.9
12/19/2014 23:00 19.40 53 98 26 53 3 69 6 74 0.00 12.8
12/20/2014 00:00 19.43 53 98 26 53 1 97 6 67 0.00 12.8
12/20/2014 01:00 19.44 53 98 26 53 0 90 0 0 0.00 12.8
12/20/2014 02:00 19.45 53 98 26 53 1 310 6 100 0.00 12.8
12/20/2014 03:00 19.51 53 98 26 53 0 339 2 50 0.00 12.7
12/20/2014 04:00 19.57 53 98 26 53 1 327 2 12 0.00 12.7
12/20/2014 05:00 19.59 52 99 26 52 2 104 4 6 0.00 12.7
12/20/2014 06:00 19.59 52 99 26 52 2 91 3 91 0.00 12.7
12/20/2014 07:00 19.59 52 99 26 51 2 95 3 86 0.00 12.7
12/20/2014 08:00 19.59 52 99 26 51 1 126 4 44 8.00 12.7
12/20/2014 09:00 19.59 53 99 26 54 1 125 3 101 40.00 12.9
12/20/2014 10:00 19.59 54 99 26 57 1 146 3 98 105.00 13.8
12/20/2014 11:00 19.59 57 91 26 63 3 212 5 222 227.00 13.9
12/20/2014 12:00 19.59 59 83 26 63 1 261 6 233 243.00 13.9
12/20/2014 13:00 19.59 58 76 26 61 1 223 5 169 200.00 13.9
12/20/2014 14:00 19.59 58 82 26 62 2 249 7 225 153.00 13.9
12/20/2014 15:00 19.59 58 87 26 60 3 231 5 237 96.00 14.1
12/20/2014 16:00 19.59 56 86 26 56 1 267 6 210 63.00 13.6
12/20/2014 17:00 19.59 54 93 26 53 0 70 4 203 10.00 13.4

Later | Latest

Warning! This data is preliminary and subject to revision.

Show LAH Map | 24 Hours LAH Data | Plot all LAH Sensors | Daily LAH Data | LAH Info